Time;durP1;ratioP1;P1;durP2;ratioP2;P2;SDS_P1;SDS_P2;PMS_P1;PMS_P2;Temp;Humidity;BMP_temperature;BMP_pressure;BME280_temperature;BME280_humidity;BME280_pressure;Samples;Min_cycle;Max_cycle;Signal;HPM_P1;HPM_P2
2022/06/12 00:02:24;;;;;;;62.97;6.13;;;;;;;;;;5093604;28;20969;-74
2022/06/12 00:04:51;;;;;;;63.50;5.50;;;;;;;;;;5093653;28;20452;-74
2022/06/12 00:07:19;;;;;;;63.20;5.57;;;;;;;;;;5093119;28;20956;-74
2022/06/12 00:09:46;;;;;;;61.87;5.53;;;;;;;;;;5093775;28;20538;-73
2022/06/12 00:12:14;;;;;;;66.27;6.03;;;;;;;;;;5093617;28;20632;-73
2022/06/12 00:14:41;;;;;;;61.63;5.67;;;;;;;;;;5093525;28;20961;-74
2022/06/12 00:17:09;;;;;;;61.97;5.37;;;;;;;;;;5092900;28;20443;-74
2022/06/12 00:19:36;;;;;;;61.90;5.67;;;;;;;;;;5093517;28;20456;-74
2022/06/12 00:22:03;;;;;;;61.47;5.60;;;;;;;;;;5093433;28;20469;-73
2022/06/12 00:24:30;;;;;;;62.00;5.17;;;;;;;;;;5093413;28;20458;-73
2022/06/12 00:26:59;;;;;;;63.20;5.90;;;;;;;;;;5093338;28;20893;-73
2022/06/12 00:29:28;;;;;;;61.03;4.90;;;;;;;;;;5092609;28;20542;-74
2022/06/12 00:31:57;;;;;;;61.40;5.73;;;;;;;;;;5093059;28;20513;-73
2022/06/12 00:34:26;;;;;;;62.67;5.77;;;;;;;;;;5093237;28;20455;-74
2022/06/12 00:36:53;;;;;;;66.40;5.63;;;;;;;;;;5093239;28;20453;-73
2022/06/12 00:39:21;;;;;;;62.00;5.60;;;;;;;;;;5092334;28;20463;-74
2022/06/12 00:41:50;;;;;;;63.00;4.80;;;;;;;;;;5093025;28;20466;-73
2022/06/12 00:44:20;;;;;;;62.07;5.60;;;;;;;;;;5092720;28;20483;-73
2022/06/12 00:46:50;;;;;;;61.07;4.90;;;;;;;;;;5093445;28;20535;-73
2022/06/12 00:49:19;;;;;;;61.20;4.80;;;;;;;;;;5092721;28;20535;-73
2022/06/12 00:51:48;;;;;;;66.90;5.63;;;;;;;;;;5092684;28;20589;-73
2022/06/12 00:54:16;;;;;;;60.57;5.00;;;;;;;;;;5092819;28;20530;-74
2022/06/12 00:56:47;;;;;;;63.13;6.00;;;;;;;;;;5092918;28;20535;-74
2022/06/12 00:59:16;;;;;;;60.60;5.23;;;;;;;;;;5092333;28;20474;-74
2022/06/12 01:01:45;;;;;;;62.70;5.77;;;;;;;;;;5092489;28;20546;-74
2022/06/12 01:07:01;;;;;;;62.17;6.03;;;;;;;;;;5093272;28;20481;-74
2022/06/12 01:09:30;;;;;;;69.13;6.60;;;;;;;;;;5091374;28;20534;-74
2022/06/12 01:11:58;;;;;;;62.03;5.13;;;;;;;;;;5092258;28;20489;-74
2022/06/12 01:14:27;;;;;;;60.87;4.60;;;;;;;;;;5092300;28;20951;-74
2022/06/12 01:16:56;;;;;;;62.33;4.83;;;;;;;;;;5092584;28;20453;-74
2022/06/12 01:19:31;;;;;;;66.00;5.53;;;;;;;;;;5091706;28;20508;-74
2022/06/12 01:22:17;;;;;;;61.97;5.37;;;;;;;;;;5092648;28;20482;-74
2022/06/12 01:25:02;;;;;;;63.47;6.57;;;;;;;;;;5092409;28;20454;-74
2022/06/12 01:28:03;;;;;;;62.00;5.50;;;;;;;;;;5091653;28;20474;-74
2022/06/12 01:30:35;;;;;;;61.30;5.83;;;;;;;;;;5029731;28;20451;-74
2022/06/12 01:33:05;;;;;;;66.50;5.80;;;;;;;;;;5029653;28;20470;-74
2022/06/12 01:35:36;;;;;;;61.30;5.27;;;;;;;;;;5060952;28;20540;-74
2022/06/12 01:38:04;;;;;;;62.57;5.77;;;;;;;;;;5090951;28;20460;-74
2022/06/12 01:40:35;;;;;;;61.87;5.70;;;;;;;;;;5091872;28;20479;-74
2022/06/12 01:43:06;;;;;;;62.17;5.03;;;;;;;;;;5092109;28;20889;-74
2022/06/12 01:45:38;;;;;;;61.80;5.10;;;;;;;;;;5092240;28;20794;-74
2022/06/12 01:48:26;;;;;;;63.57;6.23;;;;;;;;;;5091510;28;20834;-74
2022/06/12 01:50:56;;;;;;;61.50;5.70;;;;;;;;;;5048986;28;20600;-74
2022/06/12 01:53:27;;;;;;;61.87;5.90;;;;;;;;;;5049166;28;20496;-74
2022/06/12 01:55:58;;;;;;;62.20;5.40;;;;;;;;;;5049564;28;20449;-74
2022/06/12 01:58:28;;;;;;;62.33;6.20;;;;;;;;;;5048686;28;20441;-74
2022/06/12 02:01:01;;;;;;;66.53;6.57;;;;;;;;;;5049235;28;20452;-74
2022/06/12 02:03:31;;;;;;;62.20;6.67;;;;;;;;;;5049199;28;20571;-74
2022/06/12 02:06:00;;;;;;;63.07;5.37;;;;;;;;;;5049327;28;20454;-75
2022/06/12 02:08:30;;;;;;;61.90;6.07;;;;;;;;;;5059606;28;20459;-74
2022/06/12 02:13:11;;;;;;;61.47;5.53;;;;;;;;;;5091619;28;20959;-74
2022/06/12 02:13:46;;;;;;;61.67;5.40;;;;;;;;;;5091629;28;20447;-75
2022/06/12 02:16:17;;;;;;;62.40;5.93;;;;;;;;;;5092000;28;20451;-74
2022/06/12 02:18:46;;;;;;;61.77;5.50;;;;;;;;;;5090925;28;20540;-74
2022/06/12 02:21:16;;;;;;;61.73;5.63;;;;;;;;;;5091521;28;20483;-75
2022/06/12 02:23:45;;;;;;;60.70;5.43;;;;;;;;;;5091582;28;20453;-74
2022/06/12 02:26:15;;;;;;;62.50;5.03;;;;;;;;;;5091749;28;20543;-74
2022/06/12 02:28:44;;;;;;;61.33;5.67;;;;;;;;;;5090952;28;20444;-75
2022/06/12 02:31:14;;;;;;;61.07;5.30;;;;;;;;;;5091670;28;20487;-74
2022/06/12 02:33:44;;;;;;;61.20;6.00;;;;;;;;;;5091537;28;20447;-74
2022/06/12 02:36:15;;;;;;;60.47;4.77;;;;;;;;;;5091565;28;20446;-74
2022/06/12 02:38:45;;;;;;;61.60;5.53;;;;;;;;;;5090753;28;20461;-74
2022/06/12 02:41:14;;;;;;;64.87;6.30;;;;;;;;;;5091735;28;20457;-74
2022/06/12 02:43:43;;;;;;;64.67;6.20;;;;;;;;;;5091387;28;20471;-74
2022/06/12 02:46:13;;;;;;;62.77;6.40;;;;;;;;;;5091419;28;20461;-74
2022/06/12 02:48:41;;;;;;;61.20;5.23;;;;;;;;;;5090977;28;20852;-74
2022/06/12 02:51:13;;;;;;;62.27;6.00;;;;;;;;;;5094647;28;20458;-74
2022/06/12 02:53:46;;;;;;;62.43;5.77;;;;;;;;;;5095211;28;20454;-74
2022/06/12 02:56:17;;;;;;;62.70;5.20;;;;;;;;;;5095602;28;20504;-74
2022/06/12 02:58:49;;;;;;;62.47;6.00;;;;;;;;;;5094341;28;20974;-74
2022/06/12 03:01:17;;;;;;;64.90;5.40;;;;;;;;;;5094920;28;20947;-74
2022/06/12 03:03:47;;;;;;;61.40;5.87;;;;;;;;;;5095055;28;20447;-74
2022/06/12 03:06:17;;;;;;;63.17;5.33;;;;;;;;;;5095152;28;20829;-75
2022/06/12 03:08:46;;;;;;;61.47;5.23;;;;;;;;;;5094621;28;20443;-74
2022/06/12 03:11:16;;;;;;;60.57;5.13;;;;;;;;;;5094745;28;20447;-74
2022/06/12 03:13:44;;;;;;;61.23;5.73;;;;;;;;;;5094663;28;20457;-74
2022/06/12 03:16:13;;;;;;;60.87;5.00;;;;;;;;;;5094720;28;20451;-74
2022/06/12 03:18:41;;;;;;;61.40;5.90;;;;;;;;;;5094200;28;20451;-74
2022/06/12 03:21:10;;;;;;;62.90;5.47;;;;;;;;;;5094730;28;20541;-74
2022/06/12 03:23:48;;;;;;;61.77;6.03;;;;;;;;;;5094374;28;20470;-75
2022/06/12 03:26:23;;;;;;;61.87;5.47;;;;;;;;;;5094569;28;20454;-75
2022/06/12 03:28:54;;;;;;;61.20;5.27;;;;;;;;;;5094557;28;20954;-75
2022/06/12 03:31:23;;;;;;;61.37;5.57;;;;;;;;;;5094994;28;20854;-74
2022/06/12 03:33:55;;;;;;;62.17;5.77;;;;;;;;;;5094268;28;20951;-73
2022/06/12 03:36:25;;;;;;;63.20;5.60;;;;;;;;;;5094312;28;20575;-73
2022/06/12 03:38:57;;;;;;;63.00;5.90;;;;;;;;;;5093874;28;20508;-74
2022/06/12 03:41:27;;;;;;;61.00;5.63;;;;;;;;;;5094390;28;20795;-74
2022/06/12 03:43:57;;;;;;;62.30;6.33;;;;;;;;;;5094262;28;20964;-74
2022/06/12 03:46:27;;;;;;;61.23;5.23;;;;;;;;;;5094097;28;20931;-74
2022/06/12 03:48:56;;;;;;;62.17;5.53;;;;;;;;;;5093896;28;20485;-74
2022/06/12 03:51:26;;;;;;;62.60;6.30;;;;;;;;;;5093708;28;20447;-74
2022/06/12 03:53:57;;;;;;;64.30;5.57;;;;;;;;;;5094268;28;20446;-74
2022/06/12 03:59:14;;;;;;;124.33;10.83;;;;;;;;;;5093837;28;20502;-74
2022/06/12 04:01:43;;;;;;;62.40;5.00;;;;;;;;;;5093499;28;20462;-75
2022/06/12 04:04:10;;;;;;;62.10;5.20;;;;;;;;;;5094012;28;20475;-74
2022/06/12 04:06:38;;;;;;;61.50;5.30;;;;;;;;;;5093903;28;20441;-74
2022/06/12 04:09:14;;;;;;;61.17;5.17;;;;;;;;;;5093529;28;20815;-74
2022/06/12 04:11:42;;;;;;;61.10;5.30;;;;;;;;;;5093399;28;21006;-74
2022/06/12 04:14:13;;;;;;;63.43;5.20;;;;;;;;;;5093465;28;20554;-74
2022/06/12 04:16:42;;;;;;;60.90;4.83;;;;;;;;;;5093987;28;20447;-74
2022/06/12 04:19:13;;;;;;;62.23;6.07;;;;;;;;;;5093338;28;20451;-74
2022/06/12 04:21:42;;;;;;;66.87;5.60;;;;;;;;;;5093492;28;20475;-75
2022/06/12 04:24:13;;;;;;;61.73;6.10;;;;;;;;;;5093495;28;20694;-74
2022/06/12 04:26:41;;;;;;;60.97;5.60;;;;;;;;;;5093319;28;20874;-74
2022/06/12 04:29:20;;;;;;;61.30;5.30;;;;;;;;;;5093226;28;20453;-74
2022/06/12 04:31:49;;;;;;;62.50;5.50;;;;;;;;;;5093117;28;20469;-74
2022/06/12 04:34:17;;;;;;;61.07;4.80;;;;;;;;;;5093436;28;20449;-74
2022/06/12 04:36:46;;;;;;;61.60;4.90;;;;;;;;;;5093077;28;20538;-74
2022/06/12 04:39:15;;;;;;;62.87;5.83;;;;;;;;;;5092586;28;20982;-74
2022/06/12 04:41:43;;;;;;;61.03;5.43;;;;;;;;;;5092895;28;20991;-74
2022/06/12 04:44:10;;;;;;;62.67;5.00;;;;;;;;;;5093194;28;20446;-75
2022/06/12 04:46:39;;;;;;;61.70;5.40;;;;;;;;;;5093048;28;20489;-74
2022/06/12 04:49:07;;;;;;;63.87;5.20;;;;;;;;;;5092797;28;20797;-74
2022/06/12 04:51:34;;;;;;;61.40;5.30;;;;;;;;;;5092810;28;20818;-74
2022/06/12 04:54:02;;;;;;;60.90;4.67;;;;;;;;;;5092676;28;20528;-74
2022/06/12 04:56:31;;;;;;;61.13;4.43;;;;;;;;;;5092751;28;20921;-74
2022/06/12 04:58:59;;;;;;;61.40;5.97;;;;;;;;;;5092604;28;20535;-74
2022/06/12 05:01:26;;;;;;;62.50;5.47;;;;;;;;;;5092747;28;20529;-74
2022/06/12 05:03:53;;;;;;;61.43;5.10;;;;;;;;;;5092704;28;20446;-74
2022/06/12 05:06:20;;;;;;;61.50;5.43;;;;;;;;;;5092462;28;20455;-74
2022/06/12 05:08:48;;;;;;;61.27;5.57;;;;;;;;;;5092580;28;20453;-74
2022/06/12 05:11:15;;;;;;;61.20;5.40;;;;;;;;;;5092830;28;20444;-74
2022/06/12 05:13:44;;;;;;;61.20;5.33;;;;;;;;;;5091880;28;20487;-74
2022/06/12 05:16:18;;;;;;;60.60;4.73;;;;;;;;;;5092353;28;20451;-74
2022/06/12 05:18:45;;;;;;;61.10;5.37;;;;;;;;;;5092119;28;20818;-73
2022/06/12 05:21:13;;;;;;;60.97;5.03;;;;;;;;;;5092773;28;20452;-73
2022/06/12 05:23:40;;;;;;;62.50;5.23;;;;;;;;;;5092460;28;20452;-73
2022/06/12 05:26:07;;;;;;;61.00;5.10;;;;;;;;;;5092402;28;20449;-73
2022/06/12 05:28:34;;;;;;;61.00;5.30;;;;;;;;;;5092047;28;20936;-74
2022/06/12 05:31:02;;;;;;;60.47;4.53;;;;;;;;;;5092189;28;20456;-74
2022/06/12 05:33:29;;;;;;;61.10;5.50;;;;;;;;;;5091860;28;20489;-74
2022/06/12 05:35:57;;;;;;;60.97;5.53;;;;;;;;;;5092513;28;20828;-74
2022/06/12 05:38:24;;;;;;;61.17;5.43;;;;;;;;;;5091735;28;20976;-74
2022/06/12 05:40:51;;;;;;;61.00;5.20;;;;;;;;;;5092143;28;20498;-74
2022/06/12 05:43:18;;;;;;;62.90;5.83;;;;;;;;;;5092044;28;20461;-74
2022/06/12 05:45:46;;;;;;;60.40;4.77;;;;;;;;;;5092542;28;20556;-74
2022/06/12 05:48:17;;;;;;;62.10;4.50;;;;;;;;;;5091890;28;20456;-74
2022/06/12 05:50:48;;;;;;;61.90;5.70;;;;;;;;;;5091935;28;20464;-74
2022/06/12 05:53:16;;;;;;;60.97;4.83;;;;;;;;;;5091784;28;20499;-74
2022/06/12 05:55:44;;;;;;;62.07;5.30;;;;;;;;;;5092049;28;20453;-73
2022/06/12 05:58:11;;;;;;;60.47;5.10;;;;;;;;;;5091535;28;20456;-74
2022/06/12 06:00:38;;;;;;;61.07;5.20;;;;;;;;;;5091701;28;20465;-73
2022/06/12 06:03:05;;;;;;;60.60;5.27;;;;;;;;;;5091984;28;20469;-74
2022/06/12 06:05:35;;;;;;;60.80;4.60;;;;;;;;;;5091797;28;20462;-74
2022/06/12 06:08:03;;;;;;;62.70;4.87;;;;;;;;;;5091624;28;20839;-74
2022/06/12 06:10:30;;;;;;;60.63;5.10;;;;;;;;;;5091779;28;20499;-74
2022/06/12 06:12:57;;;;;;;60.50;4.90;;;;;;;;;;5091428;28;20521;-74
2022/06/12 06:15:25;;;;;;;60.40;4.60;;;;;;;;;;5091872;28;20480;-73
2022/06/12 06:17:52;;;;;;;60.30;4.80;;;;;;;;;;5091578;28;20468;-73
2022/06/12 06:20:22;;;;;;;60.93;5.10;;;;;;;;;;5091788;28;20460;-73
2022/06/12 06:22:51;;;;;;;61.63;5.37;;;;;;;;;;5091604;28;20469;-74
2022/06/12 06:25:18;;;;;;;61.07;4.67;;;;;;;;;;5095494;28;20445;-73
2022/06/12 06:27:45;;;;;;;60.43;4.97;;;;;;;;;;5095207;28;20551;-73
2022/06/12 06:30:13;;;;;;;61.20;4.87;;;;;;;;;;5095548;28;20479;-74
2022/06/12 06:32:41;;;;;;;61.87;4.57;;;;;;;;;;5095499;28;20478;-74
2022/06/12 06:35:09;;;;;;;60.97;5.10;;;;;;;;;;5095646;28;20452;-73
2022/06/12 06:37:36;;;;;;;62.03;4.87;;;;;;;;;;5095058;28;20504;-73
2022/06/12 06:40:06;;;;;;;59.80;4.63;;;;;;;;;;5095331;28;20546;-74
2022/06/12 06:42:34;;;;;;;62.90;4.93;;;;;;;;;;5095508;28;20458;-73
2022/06/12 06:47:51;;;;;;;62.50;4.93;;;;;;;;;;5055963;28;20732;-73
2022/06/12 06:50:19;;;;;;;61.13;4.60;;;;;;;;;;5095429;28;20446;-74
2022/06/12 06:52:47;;;;;;;59.97;4.10;;;;;;;;;;5094959;28;20485;-74
2022/06/12 06:55:16;;;;;;;61.07;4.80;;;;;;;;;;5095291;28;20438;-73
2022/06/12 06:57:44;;;;;;;60.23;4.83;;;;;;;;;;5094796;28;20943;-73
2022/06/12 07:00:14;;;;;;;60.30;4.73;;;;;;;;;;5095513;28;20457;-73
2022/06/12 07:02:41;;;;;;;60.73;4.53;;;;;;;;;;5095111;28;20987;-73
2022/06/12 07:05:09;;;;;;;59.30;3.97;;;;;;;;;;5094917;28;20468;-74
2022/06/12 07:07:37;;;;;;;64.20;5.67;;;;;;;;;;5094559;28;20957;-73
2022/06/12 07:10:05;;;;;;;60.40;4.90;;;;;;;;;;5094967;28;20548;-73
2022/06/12 07:12:33;;;;;;;60.87;4.90;;;;;;;;;;5094800;28;20925;-73
2022/06/12 07:15:00;;;;;;;59.60;4.00;;;;;;;;;;5094804;28;20444;-73
2022/06/12 07:17:28;;;;;;;60.37;4.50;;;;;;;;;;5094480;28;20529;-74
2022/06/12 07:19:55;;;;;;;61.30;4.93;;;;;;;;;;5095053;28;20449;-71
2022/06/12 07:22:22;;;;;;;60.47;4.53;;;;;;;;;;5094680;28;20833;-74
2022/06/12 07:24:49;;;;;;;60.53;4.73;;;;;;;;;;5094774;28;20459;-73
2022/06/12 07:27:16;;;;;;;60.23;3.90;;;;;;;;;;5094273;28;20944;-73
2022/06/12 07:29:45;;;;;;;60.27;4.57;;;;;;;;;;5094609;28;20896;-74
2022/06/12 07:32:12;;;;;;;61.60;4.80;;;;;;;;;;5094380;28;20876;-74
2022/06/12 07:34:39;;;;;;;59.17;3.83;;;;;;;;;;5094001;28;20486;-74
2022/06/12 07:37:07;;;;;;;60.63;4.87;;;;;;;;;;5093886;28;20844;-74
2022/06/12 07:39:35;;;;;;;61.00;4.23;;;;;;;;;;5094182;28;20471;-71
2022/06/12 07:42:02;;;;;;;60.17;4.70;;;;;;;;;;5094172;28;20468;-73
2022/06/12 07:44:32;;;;;;;59.30;4.10;;;;;;;;;;5094151;28;20441;-73
2022/06/12 07:47:00;;;;;;;60.07;4.23;;;;;;;;;;5094443;28;20811;-73
2022/06/12 07:49:29;;;;;;;59.37;3.73;;;;;;;;;;5093996;28;20817;-73
2022/06/12 07:51:57;;;;;;;60.17;4.13;;;;;;;;;;5093911;28;20473;-73
2022/06/12 07:54:24;;;;;;;62.43;4.13;;;;;;;;;;5093889;28;20487;-73
2022/06/12 07:56:51;;;;;;;59.27;3.83;;;;;;;;;;5093992;28;20550;-72
2022/06/12 07:59:19;;;;;;;59.90;4.03;;;;;;;;;;5093593;28;20450;-73
2022/06/12 08:01:46;;;;;;;59.60;4.37;;;;;;;;;;5093915;28;20478;-72
2022/06/12 08:04:14;;;;;;;60.20;4.30;;;;;;;;;;5093933;28;20477;-73
2022/06/12 08:06:41;;;;;;;59.53;3.97;;;;;;;;;;5093853;28;20453;-73
2022/06/12 08:09:10;;;;;;;59.80;3.77;;;;;;;;;;5093411;28;20965;-73
2022/06/12 08:11:38;;;;;;;62.23;4.07;;;;;;;;;;5093450;28;20470;-73
2022/06/12 08:14:05;;;;;;;59.87;4.53;;;;;;;;;;5093397;28;20547;-72
2022/06/12 08:16:32;;;;;;;59.80;4.10;;;;;;;;;;5093986;28;20438;-72
2022/06/12 08:19:00;;;;;;;59.60;4.20;;;;;;;;;;5093212;28;20461;-72
2022/06/12 08:21:29;;;;;;;63.70;4.77;;;;;;;;;;5093411;28;20443;-72
2022/06/12 08:23:57;;;;;;;59.70;4.60;;;;;;;;;;5093475;28;20468;-72
2022/06/12 08:26:25;;;;;;;60.77;3.40;;;;;;;;;;5093425;28;20453;-72
2022/06/12 08:28:53;;;;;;;59.50;3.50;;;;;;;;;;5093129;28;20454;-72
2022/06/12 08:31:22;;;;;;;60.43;3.80;;;;;;;;;;5093129;28;20966;-73
2022/06/12 08:33:51;;;;;;;60.10;3.90;;;;;;;;;;5093114;28;20482;-72
2022/06/12 08:36:19;;;;;;;59.60;3.50;;;;;;;;;;5093321;28;20489;-72
2022/06/12 08:38:48;;;;;;;59.93;3.97;;;;;;;;;;5092720;28;20463;-72
2022/06/12 08:41:17;;;;;;;60.23;3.80;;;;;;;;;;5093096;28;20446;-72
2022/06/12 08:43:47;;;;;;;59.77;4.00;;;;;;;;;;5093035;28;20449;-72
2022/06/12 08:46:17;;;;;;;63.43;4.10;;;;;;;;;;5093147;28;20452;-73
2022/06/12 08:48:52;;;;;;;60.70;5.10;;;;;;;;;;5092956;28;20453;-72
2022/06/12 08:51:23;;;;;;;59.47;3.50;;;;;;;;;;5092779;28;20449;-72
2022/06/12 08:53:53;;;;;;;59.50;3.70;;;;;;;;;;5093004;28;20490;-72
2022/06/12 08:56:22;;;;;;;60.00;3.63;;;;;;;;;;5093050;28;20460;-73
2022/06/12 08:58:51;;;;;;;60.87;3.97;;;;;;;;;;5092489;28;20494;-72
2022/06/12 09:01:18;;;;;;;63.03;4.73;;;;;;;;;;5092670;28;20446;-72
2022/06/12 09:03:49;;;;;;;59.07;3.50;;;;;;;;;;5092825;28;20525;-72
2022/06/12 09:06:21;;;;;;;59.97;3.30;;;;;;;;;;5092635;28;20985;-72
2022/06/12 09:08:49;;;;;;;58.90;3.40;;;;;;;;;;5092587;28;20453;-72
2022/06/12 09:11:20;;;;;;;60.07;3.30;;;;;;;;;;5092562;28;20453;-72
2022/06/12 09:13:55;;;;;;;64.40;3.67;;;;;;;;;;5092575;28;20530;-73
2022/06/12 09:16:24;;;;;;;58.27;3.07;;;;;;;;;;5092477;28;20434;-72
2022/06/12 09:18:56;;;;;;;59.40;3.50;;;;;;;;;;5092042;28;20453;-72
2022/06/12 09:21:26;;;;;;;61.33;3.80;;;;;;;;;;5092326;28;20957;-73
2022/06/12 09:23:58;;;;;;;59.00;3.27;;;;;;;;;;5092428;28;20441;-73
2022/06/12 09:26:32;;;;;;;59.73;3.03;;;;;;;;;;5092334;28;20496;-73
2022/06/12 09:29:04;;;;;;;63.30;3.73;;;;;;;;;;5091925;28;20451;-73
2022/06/12 09:31:36;;;;;;;58.50;3.30;;;;;;;;;;5092461;28;20443;-73
2022/06/12 09:34:07;;;;;;;60.13;3.33;;;;;;;;;;5092165;28;20835;-73
2022/06/12 09:36:41;;;;;;;59.57;3.70;;;;;;;;;;5092201;28;20453;-73
2022/06/12 09:39:10;;;;;;;59.07;3.77;;;;;;;;;;5091678;28;20991;-73
2022/06/12 09:41:45;;;;;;;77.70;4.17;;;;;;;;;;5092324;28;20470;-73
2022/06/12 09:44:14;;;;;;;59.00;3.30;;;;;;;;;;5092084;28;20445;-73
2022/06/12 09:46:45;;;;;;;58.70;3.50;;;;;;;;;;5092083;28;20457;-73
2022/06/12 09:49:29;;;;;;;59.10;3.50;;;;;;;;;;5091800;28;20531;-73
2022/06/12 09:52:03;;;;;;;59.37;3.60;;;;;;;;;;5091906;28;20825;-74
2022/06/12 09:54:40;;;;;;;59.10;3.20;;;;;;;;;;5092082;28;20856;-73
2022/06/12 09:57:12;;;;;;;66.13;3.47;;;;;;;;;;5091907;28;20449;-74
2022/06/12 09:59:42;;;;;;;61.03;3.83;;;;;;;;;;5091812;28;20995;-73
2022/06/12 10:02:13;;;;;;;58.73;3.00;;;;;;;;;;5091697;28;20474;-73
2022/06/12 10:04:44;;;;;;;58.80;3.20;;;;;;;;;;5091926;28;20537;-73
2022/06/12 10:07:14;;;;;;;59.10;3.03;;;;;;;;;;5092017;28;20493;-73
2022/06/12 10:09:43;;;;;;;58.27;2.80;;;;;;;;;;5091899;28;20541;-73
2022/06/12 10:12:14;;;;;;;58.40;2.80;;;;;;;;;;5091835;28;20578;-72
2022/06/12 10:14:43;;;;;;;62.60;3.40;;;;;;;;;;5091798;28;21000;-72
2022/06/12 10:17:13;;;;;;;59.20;2.83;;;;;;;;;;5091540;28;20443;-72
2022/06/12 10:19:42;;;;;;;59.63;2.80;;;;;;;;;;5091993;28;20503;-72
2022/06/12 10:22:12;;;;;;;59.20;3.50;;;;;;;;;;5091786;28;20553;-73
2022/06/12 10:24:39;;;;;;;58.67;3.17;;;;;;;;;;5091737;28;20442;-73
2022/06/12 10:27:08;;;;;;;58.27;2.90;;;;;;;;;;5091550;28;20970;-72
2022/06/12 10:29:44;;;;;;;58.53;2.90;;;;;;;;;;5091827;28;20580;-74
2022/06/12 10:32:14;;;;;;;58.07;2.83;;;;;;;;;;5091860;28;20470;-73
2022/06/12 10:34:41;;;;;;;57.80;2.60;;;;;;;;;;5091530;28;20566;-73
2022/06/12 10:37:12;;;;;;;58.27;2.77;;;;;;;;;;5091538;28;21014;-73
2022/06/12 10:39:41;;;;;;;58.00;2.80;;;;;;;;;;5091528;28;20880;-73
2022/06/12 10:42:09;;;;;;;58.50;2.80;;;;;;;;;;5091621;28;20837;-73
2022/06/12 10:44:38;;;;;;;57.93;2.40;;;;;;;;;;5091640;28;20819;-73
2022/06/12 10:47:11;;;;;;;58.00;2.57;;;;;;;;;;5091462;28;20450;-73
2022/06/12 10:49:38;;;;;;;58.97;2.90;;;;;;;;;;5091476;28;20450;-74
2022/06/12 10:52:06;;;;;;;57.60;2.63;;;;;;;;;;5091259;28;20467;-73
2022/06/12 10:54:34;;;;;;;57.67;2.60;;;;;;;;;;5091474;28;20569;-73
2022/06/12 10:57:07;;;;;;;59.63;2.60;;;;;;;;;;5091428;28;20790;-73
2022/06/12 10:59:36;;;;;;;58.63;2.70;;;;;;;;;;5091517;28;20852;-73
2022/06/12 11:02:22;;;;;;;57.70;2.90;;;;;;;;;;5091224;28;20462;-73
2022/06/12 11:04:59;;;;;;;56.80;2.80;;;;;;;;;;5091411;28;20569;-73
2022/06/12 11:07:28;;;;;;;59.00;3.00;;;;;;;;;;5091246;28;20817;-73
2022/06/12 11:10:01;;;;;;;57.20;2.40;;;;;;;;;;5091395;28;20446;-72
2022/06/12 11:12:38;;;;;;;57.20;2.57;;;;;;;;;;5094757;28;20837;-73
2022/06/12 11:15:14;;;;;;;57.50;2.87;;;;;;;;;;5094787;28;20442;-73
2022/06/12 11:17:48;;;;;;;56.97;2.57;;;;;;;;;;5094807;28;20529;-73
2022/06/12 11:20:22;;;;;;;57.10;2.83;;;;;;;;;;5094758;28;20446;-73
2022/06/12 11:22:53;;;;;;;57.20;2.57;;;;;;;;;;5094706;28;20466;-73
2022/06/12 11:25:34;;;;;;;59.90;3.00;;;;;;;;;;5094632;28;20845;-73
2022/06/12 11:28:10;;;;;;;57.67;2.43;;;;;;;;;;5094579;28;20455;-73
2022/06/12 11:30:47;;;;;;;56.93;2.40;;;;;;;;;;5094652;28;20465;-74
2022/06/12 11:33:28;;;;;;;59.20;3.13;;;;;;;;;;5094504;28;20479;-73
2022/06/12 11:35:59;;;;;;;58.57;3.00;;;;;;;;;;5095034;28;20442;-73
2022/06/12 11:38:36;;;;;;;57.43;3.07;;;;;;;;;;5093937;28;20466;-74
2022/06/12 11:41:07;;;;;;;57.30;2.37;;;;;;;;;;5094398;28;20533;-73
2022/06/12 11:43:36;;;;;;;57.07;2.70;;;;;;;;;;5094346;28;20466;-74
2022/06/12 11:46:12;;;;;;;57.33;2.90;;;;;;;;;;5094378;28;20478;-73
2022/06/12 11:48:59;;;;;;;56.43;2.83;;;;;;;;;;5094228;28;20435;-74
2022/06/12 11:51:32;;;;;;;61.90;3.10;;;;;;;;;;5094166;28;20538;-73
2022/06/12 11:54:08;;;;;;;57.43;3.00;;;;;;;;;;5094016;28;20477;-74
2022/06/12 11:56:40;;;;;;;57.80;2.60;;;;;;;;;;5094159;28;20453;-73
2022/06/12 11:59:12;;;;;;;57.60;2.60;;;;;;;;;;5093938;28;20447;-74
2022/06/12 12:01:42;;;;;;;57.90;2.87;;;;;;;;;;5094255;28;20470;-74
2022/06/12 12:04:16;;;;;;;56.87;2.40;;;;;;;;;;5093756;28;20450;-74
2022/06/12 12:06:57;;;;;;;57.77;3.03;;;;;;;;;;5093814;28;20446;-74
2022/06/12 12:09:35;;;;;;;57.07;2.70;;;;;;;;;;5093591;28;20893;-74
2022/06/12 12:12:04;;;;;;;57.23;2.80;;;;;;;;;;5093840;28;20549;-73
2022/06/12 12:14:33;;;;;;;57.47;2.83;;;;;;;;;;5093853;28;20544;-73
2022/06/12 12:17:03;;;;;;;57.70;2.57;;;;;;;;;;5093655;28;20455;-73
2022/06/12 12:19:33;;;;;;;56.27;2.80;;;;;;;;;;5093308;28;20443;-73
2022/06/12 12:22:05;;;;;;;56.20;2.60;;;;;;;;;;5093595;28;20473;-73
2022/06/12 12:24:37;;;;;;;57.07;2.93;;;;;;;;;;5093588;28;20493;-74
2022/06/12 12:27:07;;;;;;;57.27;2.80;;;;;;;;;;5093271;28;20529;-74
2022/06/12 12:29:35;;;;;;;56.33;2.33;;;;;;;;;;5093262;28;20451;-74
2022/06/12 12:32:03;;;;;;;57.17;2.93;;;;;;;;;;5093288;28;20561;-74
2022/06/12 12:34:31;;;;;;;57.03;2.70;;;;;;;;;;5093408;28;20530;-74
2022/06/12 12:42:31;;;;;;;56.33;2.50;;;;;;;;;;5093064;28;20912;-73
2022/06/12 12:45:09;;;;;;;56.47;2.70;;;;;;;;;;5092906;28;20872;-73
2022/06/12 12:47:37;;;;;;;56.40;2.50;;;;;;;;;;5093040;28;20447;-73
2022/06/12 12:50:05;;;;;;;58.90;3.50;;;;;;;;;;5093483;28;20545;-74
2022/06/12 12:52:41;;;;;;;56.77;2.90;;;;;;;;;;5092917;28;20492;-73
2022/06/12 12:55:17;;;;;;;56.57;2.60;;;;;;;;;;5092832;28;20812;-73
2022/06/12 12:57:46;;;;;;;57.10;3.03;;;;;;;;;;5092645;28;21028;-72
2022/06/12 13:00:22;;;;;;;57.00;2.90;;;;;;;;;;5092824;28;20456;-73
2022/06/12 13:02:53;;;;;;;57.83;2.67;;;;;;;;;;5092819;28;20477;-74
2022/06/12 13:05:22;;;;;;;57.60;3.10;;;;;;;;;;5092766;28;20864;-72
2022/06/12 13:07:56;;;;;;;62.30;8.60;;;;;;;;;;5092552;28;20447;-73
2022/06/12 13:10:38;;;;;;;63.87;7.77;;;;;;;;;;5092841;28;20946;-74
2022/06/12 13:13:14;;;;;;;64.60;9.90;;;;;;;;;;5092655;28;20469;-74
2022/06/12 13:15:45;;;;;;;66.03;9.87;;;;;;;;;;5092624;28;20448;-74
2022/06/12 13:18:19;;;;;;;59.80;4.73;;;;;;;;;;5092212;28;20870;-73
2022/06/12 13:20:51;;;;;;;58.87;4.30;;;;;;;;;;5092756;28;20446;-73
2022/06/12 13:23:26;;;;;;;58.00;2.77;;;;;;;;;;5092277;28;20466;-73
2022/06/12 13:25:55;;;;;;;58.70;3.70;;;;;;;;;;5092683;28;20915;-73
2022/06/12 13:28:23;;;;;;;58.80;2.83;;;;;;;;;;5092053;28;20450;-74
2022/06/12 13:30:51;;;;;;;59.47;4.40;;;;;;;;;;5092601;28;20457;-74
2022/06/12 13:33:20;;;;;;;58.37;3.40;;;;;;;;;;5091608;28;20506;-73
2022/06/12 13:35:49;;;;;;;59.70;5.27;;;;;;;;;;5092523;28;20852;-73
2022/06/12 13:38:20;;;;;;;59.27;5.17;;;;;;;;;;5091951;28;20465;-73
2022/06/12 13:40:54;;;;;;;59.27;5.57;;;;;;;;;;5092320;28;20460;-73
2022/06/12 13:43:24;;;;;;;60.67;4.70;;;;;;;;;;5092002;28;20473;-73
2022/06/12 13:45:53;;;;;;;58.43;3.30;;;;;;;;;;5092249;28;20485;-72
2022/06/12 13:48:24;;;;;;;60.33;4.37;;;;;;;;;;5091995;28;20457;-72
2022/06/12 13:50:54;;;;;;;56.70;2.70;;;;;;;;;;5092108;28;20451;-72
2022/06/12 13:53:21;;;;;;;57.07;3.07;;;;;;;;;;5091908;28;20561;-71
2022/06/12 13:55:53;;;;;;;56.87;2.80;;;;;;;;;;5092285;28;20497;-72
2022/06/12 13:58:21;;;;;;;57.50;2.87;;;;;;;;;;5091726;28;20526;-72
2022/06/12 14:00:51;;;;;;;58.10;3.30;;;;;;;;;;5092052;28;20448;-72
2022/06/12 14:03:19;;;;;;;58.70;2.83;;;;;;;;;;5091873;28;20881;-72
2022/06/12 14:05:49;;;;;;;57.07;3.10;;;;;;;;;;5091673;28;20478;-73
2022/06/12 14:08:17;;;;;;;59.10;2.80;;;;;;;;;;5091943;28;20453;-74
2022/06/12 14:10:45;;;;;;;59.17;4.73;;;;;;;;;;5091948;28;20439;-73
2022/06/12 14:13:16;;;;;;;59.00;3.03;;;;;;;;;;5091864;28;20917;-74
2022/06/12 14:15:44;;;;;;;58.40;2.87;;;;;;;;;;5091799;28;20445;-73
2022/06/12 14:18:25;;;;;;;59.80;3.17;;;;;;;;;;5091583;28;20478;-73
2022/06/12 14:21:00;;;;;;;58.50;3.00;;;;;;;;;;5091767;28;21015;-73
2022/06/12 14:23:28;;;;;;;59.17;3.00;;;;;;;;;;5091532;28;20461;-73
2022/06/12 14:25:59;;;;;;;59.17;3.30;;;;;;;;;;5091613;28;20577;-73
2022/06/12 14:28:28;;;;;;;59.80;3.17;;;;;;;;;;5091669;28;20451;-73
2022/06/12 14:31:06;;;;;;;58.20;2.90;;;;;;;;;;5091426;28;20442;-73
2022/06/12 14:33:37;;;;;;;59.40;3.50;;;;;;;;;;5091416;28;20466;-73
2022/06/12 14:36:06;;;;;;;57.90;2.80;;;;;;;;;;5091683;28;20443;-73
2022/06/12 14:38:34;;;;;;;59.77;3.30;;;;;;;;;;5091176;28;20545;-73
2022/06/12 14:41:01;;;;;;;59.80;4.10;;;;;;;;;;5091417;28;20512;-73
2022/06/12 14:43:29;;;;;;;57.87;3.23;;;;;;;;;;5091412;28;20470;-73
2022/06/12 14:45:58;;;;;;;57.97;2.90;;;;;;;;;;5094522;28;20486;-73
2022/06/12 14:48:27;;;;;;;58.70;2.90;;;;;;;;;;5095557;28;20448;-73
2022/06/12 14:50:55;;;;;;;58.10;3.10;;;;;;;;;;5095448;28;20452;-73
2022/06/12 14:53:23;;;;;;;58.00;2.80;;;;;;;;;;5095287;28;20476;-74
2022/06/12 14:55:50;;;;;;;58.33;3.03;;;;;;;;;;5095138;28;20533;-73
2022/06/12 14:58:25;;;;;;;58.57;3.33;;;;;;;;;;5094781;28;20486;-74
2022/06/12 15:00:53;;;;;;;58.30;3.10;;;;;;;;;;5095407;28;20457;-74
2022/06/12 15:03:20;;;;;;;60.40;4.20;;;;;;;;;;5095066;28;20480;-74